No particular awareness of the weather is required.    There are no Weather-warnings


Nieuwrode (Holsbeek) more information Nieuwrode (Holsbeek)


Thunder radar more information blitzortung!


Rain radar more information rain snow radar



Weather Underground History page Text

Daily Summary for August 20, 2018 Units:  Metric    English   Both
« Previous Day
Next Day »
Daily Weekly Monthly Yearly Custom
  Current: High: Low: Average:
Temperature: 23.3 °C -17.8 °C 19.3 °C 20.2 °C
Dew Point: 21.2 °C -17.8 °C 18.9 °C 19.4 °C
Humidity: 88 % Humidity % 88 % 95 %
Wind Speed: 7.2 km/h 0 km/h 0 km/h 3.1 km/h
Wind Gust: 7.7 km/h 0 km/h - -
Wind:NE - - ESE
Pressure: 1012.8 hPa 0 hPa 1012.8 hPa -
Precipitation: 0 mm      
Historical Graphs
 
 
Tabular Data for August 20, 2018
Time Temperature Dew Point Pressure Wind Wind Speed Wind Gust Humidity Rainfall Rate (Hourly)
-17.8 °C -17.8 °C 0 hPa Calm     Humidity % 0 mm
00:04 21.3 °C 19.8 °C 1014.4 hPa East 0.6 km/h 1.9 km/h 91 % 0 mm
00:09 21.3 °C 19.7 °C 1014.8 hPa South 5.5 km/h 7.4 km/h 91 % 0 mm
00:14 21.3 °C 19.7 °C 1014.8 hPa SE 3.4 km/h 3.9 km/h 91 % 0 mm
00:19 21.2 °C 19.7 °C 1014.4 hPa SE 2.6 km/h 3.9 km/h 91 % 0 mm
00:24 21.2 °C 19.6 °C 1014.4 hPa ESE 1.3 km/h 1.9 km/h 91 % 0 mm
00:29 21.1 °C 19.8 °C 1014.4 hPa ESE 3.7 km/h 3.9 km/h 92 % 0 mm
00:34 21 °C 19.7 °C 1014.4 hPa ESE 2.4 km/h 3.9 km/h 92 % 0 mm
00:39 20.9 °C 19.6 °C 1014.4 hPa ESE 3.2 km/h 3.9 km/h 92 % 0 mm
00:44 20.9 °C 19.6 °C 1014.4 hPa ESE 1.9 km/h 3.7 km/h 92 % 0 mm
00:49 20.8 °C 19.7 °C 1014.4 hPa ESE 0.5 km/h 3.7 km/h 93 % 0 mm
00:54 20.8 °C 19.4 °C 1014.4 hPa ESE 0.8 km/h 3.7 km/h 92 % 0 mm
00:59 20.7 °C 19.6 °C 1014.1 hPa SSE 0.3 km/h 3.7 km/h 93 % 0 mm
01:04 20.7 °C 19.5 °C 1014.4 hPa SSE 1.3 km/h 3.7 km/h 93 % 0 mm
01:09 20.6 °C 19.4 °C 1014.4 hPa South 5 km/h 9.3 km/h 93 % 0 mm
01:14 20.4 °C 19.4 °C 1014.4 hPa South 1.9 km/h 7.4 km/h 94 % 0 mm
01:19 20.4 °C 19.4 °C 1014.4 hPa Calm   1.9 km/h 94 % 0 mm
01:24 20.4 °C 19.4 °C 1014.1 hPa South 2.3 km/h 3.7 km/h 94 % 0 mm
01:29 20.3 °C 19.3 °C 1014.1 hPa Calm   1.9 km/h 94 % 0 mm
01:34 20.3 °C 19.3 °C 1014.4 hPa South 0.8 km/h 1.9 km/h 94 % 0 mm
01:39 20.2 °C 19.3 °C 1014.4 hPa South 3.2 km/h 7.7 km/h 95 % 0 mm
01:44 20.2 °C 19.3 °C 1014.4 hPa SE 6.9 km/h 9.7 km/h 95 % 0 mm
01:49 20.1 °C 19.3 °C 1014.4 hPa SE 4.7 km/h 7.4 km/h 95 % 0 mm
01:54 20.1 °C 19.3 °C 1014.1 hPa SE 4.8 km/h 3.9 km/h 95 % 0 mm
01:59 20.1 °C 19.4 °C 1014.4 hPa SSE 5.1 km/h 9.7 km/h 96 % 0 mm
02:04 20.1 °C 19.4 °C 1014.1 hPa SSE 2.7 km/h 7.4 km/h 96 % 0 mm
02:09 20.1 °C 19.4 °C 1014.1 hPa Calm   3.7 km/h 96 % 0 mm
02:14 20.1 °C 19.4 °C 1014.1 hPa SSE 1.4 km/h 3.9 km/h 96 % 0 mm
02:19 20.1 °C 19.4 °C 1014.1 hPa SSE 2.3 km/h 3.7 km/h 96 % 0 mm
02:24 20.1 °C 19.4 °C 1014.1 hPa SE 2.7 km/h 9.3 km/h 96 % 0 mm
02:29 20.1 °C 19.4 °C 1013.8 hPa SE 1.9 km/h 3.7 km/h 96 % 0 mm
02:34 20.1 °C 19.4 °C 1013.8 hPa SE 2.4 km/h 7.4 km/h 96 % 0 mm
02:39 20.1 °C 19.4 °C 1013.8 hPa SE 2.3 km/h 3.7 km/h 96 % 0 mm
02:44 20.1 °C 19.4 °C 1013.8 hPa SE 3.1 km/h 3.7 km/h 96 % 0 mm
02:49 20.1 °C 19.6 °C 1014.1 hPa SE 1.9 km/h 3.7 km/h 97 % 0 mm
02:54 20.1 °C 19.6 °C 1014.1 hPa SE 0.5 km/h 1.9 km/h 97 % 0 mm
02:59 20.1 °C 19.6 °C 1014.1 hPa SE 1 km/h 1.9 km/h 97 % 0 mm
03:04 20.1 °C 19.6 °C 1014.1 hPa SE 2.1 km/h 1.9 km/h 97 % 0 mm
03:09 20 °C 19.5 °C 1014.1 hPa SSE 2.4 km/h 3.7 km/h 97 % 0 mm
03:14 20 °C 19.5 °C 1014.1 hPa SSE 1.3 km/h 3.9 km/h 97 % 0 mm
03:19 19.9 °C 19.4 °C 1014.1 hPa SSE 1.9 km/h 3.9 km/h 97 % 0 mm
03:24 19.9 °C 19.4 °C 1014.1 hPa SSE 3.5 km/h 9.3 km/h 97 % 0 mm
03:29 19.8 °C 19.3 °C 1014.1 hPa SSE 0.6 km/h 1.9 km/h 97 % 0 mm
03:34 19.8 °C 19.3 °C 1014.1 hPa SSE 0.3 km/h 1.9 km/h 97 % 0 mm
03:39 19.8 °C 19.3 °C 1014.1 hPa SSE 0.8 km/h 1.9 km/h 97 % 0 mm
03:44 19.8 °C 19.3 °C 1014.1 hPa SSE 0.3 km/h 1.9 km/h 97 % 0 mm
03:49 19.8 °C 19.3 °C 1014.1 hPa SSE 2.3 km/h 1.9 km/h 97 % 0 mm
03:54 19.8 °C 19.3 °C 1014.1 hPa SSE 1 km/h 1.9 km/h 97 % 0 mm
03:59 19.8 °C 19.3 °C 1014.1 hPa Calm     97 % 0 mm
04:04 19.7 °C 19.2 °C 1014.1 hPa SSE 0.8 km/h 1.9 km/h 97 % 0 mm
04:09 19.7 °C 19.2 °C 1013.8 hPa SSE 1 km/h 1.9 km/h 97 % 0 mm
04:14 19.7 °C 19.2 °C 1013.8 hPa SE 2.4 km/h 3.7 km/h 97 % 0 mm
04:19 19.7 °C 19.2 °C 1013.8 hPa SE 1.3 km/h 3.9 km/h 97 % 0 mm
04:24 19.7 °C 19.3 °C 1013.8 hPa SE 1.6 km/h 1.9 km/h 98 % 0 mm
04:29 19.7 °C 19.3 °C 1013.8 hPa SE 1.8 km/h 7.4 km/h 98 % 0 mm
04:34 19.6 °C 19.3 °C 1013.8 hPa Calm   1.9 km/h 98 % 0 mm
04:39 19.6 °C 19.2 °C 1013.8 hPa Calm     98 % 0 mm
04:44 19.6 °C 19.2 °C 1013.8 hPa Calm     98 % 0 mm
04:49 19.5 °C 19.2 °C 1013.8 hPa SE 2.1 km/h 3.7 km/h 98 % 0 mm
04:54 19.4 °C 19.1 °C 1013.8 hPa SE 1.8 km/h 7.4 km/h 98 % 0 mm
04:59 19.4 °C 19.1 °C 1013.8 hPa SE 0.3 km/h 1.9 km/h 98 % 0 mm
05:04 19.4 °C 19.1 °C 1013.4 hPa Calm   3.7 km/h 98 % 0 mm
05:09 19.4 °C 19.1 °C 1013.4 hPa SE 2.1 km/h 3.7 km/h 98 % 0 mm
05:14 19.4 °C 19.1 °C 1013.8 hPa SE 0.8 km/h 1.9 km/h 98 % 0 mm
05:19 19.4 °C 19.1 °C 1013.8 hPa SE 0.5 km/h 1.9 km/h 98 % 0 mm
05:24 19.4 °C 19.1 °C 1013.8 hPa SE 0.2 km/h 1.9 km/h 98 % 0 mm
05:29 19.4 °C 19.1 °C 1013.4 hPa SE 3.7 km/h 7.4 km/h 98 % 0 mm
05:34 19.3 °C 19 °C 1013.8 hPa ESE 2.1 km/h 7.7 km/h 98 % 0 mm
05:39 19.3 °C 19 °C 1013.4 hPa ESE 0.3 km/h 7.4 km/h 98 % 0 mm
05:44 19.3 °C 19 °C 1013.4 hPa SE 1.3 km/h 3.9 km/h 98 % 0 mm
05:49 19.3 °C 18.9 °C 1013.4 hPa East 3.1 km/h 3.9 km/h 98 % 0 mm
05:54 19.3 °C 18.9 °C 1013.8 hPa East 1 km/h 3.9 km/h 98 % 0 mm
05:59 19.3 °C 18.9 °C 1013.8 hPa East 3.5 km/h 7.4 km/h 98 % 0 mm
06:04 19.3 °C 18.9 °C 1013.8 hPa ESE 3.1 km/h 3.9 km/h 98 % 0 mm
06:09 19.3 °C 18.9 °C 1013.8 hPa Calm     98 % 0 mm
06:14 19.3 °C 18.9 °C 1013.8 hPa ESE 5.8 km/h 7.4 km/h 98 % 0 mm
06:19 19.3 °C 19 °C 1013.8 hPa ESE 1.1 km/h 3.9 km/h 98 % 0 mm
06:24 19.3 °C 19 °C 1013.4 hPa ESE 2.6 km/h 7.4 km/h 98 % 0 mm
06:29 19.3 °C 19 °C 1013.4 hPa ESE 3.4 km/h 3.9 km/h 98 % 0 mm
06:34 19.3 °C 19 °C 1013.8 hPa Calm   5.6 km/h 98 % 0 mm
06:39 19.3 °C 19 °C 1013.4 hPa East 5.6 km/h 7.7 km/h 98 % 0 mm
06:44 19.3 °C 19 °C 1013.4 hPa East 2.9 km/h 3.9 km/h 98 % 0 mm
06:49 19.3 °C 19 °C 1013.8 hPa East 2.6 km/h 3.7 km/h 98 % 0 mm
06:54 19.3 °C 19 °C 1013.8 hPa East 3.2 km/h 3.7 km/h 98 % 0 mm
06:59 19.4 °C 19.1 °C 1013.4 hPa East 1.3 km/h 3.9 km/h 98 % 0 mm
07:04 19.4 °C 19.1 °C 1013.4 hPa NE 5 km/h 5.6 km/h 98 % 0 mm
07:09 19.5 °C 19.2 °C 1013.4 hPa SSE 3.7 km/h 3.9 km/h 98 % 0 mm
07:14 19.5 °C 19.2 °C 1013.4 hPa North 1.1 km/h 3.7 km/h 98 % 0 mm
07:19 19.6 °C 19.2 °C 1013.4 hPa North 1.3 km/h 3.7 km/h 98 % 0 mm
07:24 19.5 °C 19.2 °C 1013.4 hPa North 2.7 km/h 3.7 km/h 98 % 0 mm
07:29 19.5 °C 19 °C 1013.4 hPa Calm   1.9 km/h 97 % 0 mm
07:34 19.5 °C 19 °C 1013.4 hPa NNE 1.6 km/h 5.6 km/h 97 % 0 mm
07:39 19.5 °C 19 °C 1013.4 hPa NNE 0.2 km/h 1.9 km/h 97 % 0 mm
07:44 19.5 °C 19 °C 1013.4 hPa NNE 1 km/h 1.9 km/h 97 % 0 mm
07:49 19.5 °C 19 °C 1013.4 hPa NNE 0.2 km/h 1.9 km/h 97 % 0 mm
07:54 19.5 °C 19 °C 1013.8 hPa Calm   1.9 km/h 97 % 0 mm
07:59 19.6 °C 19.2 °C 1013.8 hPa NNE 1 km/h 1.9 km/h 98 % 0 mm
08:04 19.6 °C 19.2 °C 1013.8 hPa NNE 1 km/h 1.9 km/h 98 % 0 mm
08:09 19.7 °C 19.4 °C 1013.8 hPa NNE 1.9 km/h 3.7 km/h 98 % 0 mm
08:14 19.8 °C 19.5 °C 1013.8 hPa ESE 8.2 km/h 9.3 km/h 98 % 0 mm
08:19 19.9 °C 19.6 °C 1013.8 hPa ESE 5.3 km/h 9.3 km/h 98 % 0 mm
08:24 20.1 °C 19.7 °C 1013.8 hPa SE 3.9 km/h 9.3 km/h 98 % 0 mm
08:29 20.2 °C 19.8 °C 1013.8 hPa East 3.9 km/h 11.6 km/h 98 % 0 mm
08:34 20.2 °C 19.7 °C 1013.8 hPa East 2.7 km/h 7.7 km/h 97 % 0 mm
08:39 20.3 °C 19.8 °C 1013.8 hPa ENE 4.2 km/h 5.8 km/h 97 % 0 mm
08:44 20.4 °C 19.9 °C 1013.8 hPa NE 4.2 km/h 7.4 km/h 97 % 0 mm
08:49 20.6 °C 20.1 °C 1013.8 hPa SSE 2.4 km/h 3.9 km/h 97 % 0 mm
08:54 20.6 °C 20.1 °C 1013.8 hPa ENE 4.3 km/h 7.4 km/h 97 % 0 mm
08:59 20.8 °C 20.3 °C 1013.8 hPa ENE 2.6 km/h 1.9 km/h 97 % 0 mm
09:04 20.8 °C 20.3 °C 1013.4 hPa ENE 3.7 km/h 5.6 km/h 97 % 0 mm
09:09 20.8 °C 20.2 °C 1013.4 hPa NE 6.9 km/h 9.3 km/h 96 % 0 mm
09:14 21 °C 20.3 °C 1013.8 hPa SE 4.2 km/h 3.9 km/h 96 % 0 mm
09:19 21.1 °C 20.4 °C 1013.4 hPa East 4.8 km/h 7.7 km/h 96 % 0 mm
09:24 21.2 °C 20.5 °C 1013.4 hPa East 4.5 km/h 5.6 km/h 96 % 0 mm
09:29 21.2 °C 20.6 °C 1013.4 hPa ENE 4 km/h 3.9 km/h 96 % 0 mm
09:34 21.3 °C 20.5 °C 1013.4 hPa North 5.3 km/h 13 km/h 95 % 0 mm
09:39 21.4 °C 20.6 °C 1013.4 hPa ENE 9 km/h 11.1 km/h 95 % 0 mm
09:44 21.5 °C 20.7 °C 1013.4 hPa East 5.6 km/h 11.6 km/h 95 % 0 mm
09:49 21.6 °C 20.6 °C 1013.1 hPa NE 6.1 km/h 7.7 km/h 94 % 0 mm
09:54 21.7 °C 20.7 °C 1013.4 hPa ENE 4.3 km/h 5.6 km/h 94 % 0 mm
09:59 21.8 °C 20.8 °C 1013.4 hPa East 2.7 km/h 3.7 km/h 94 % 0 mm
10:04 21.8 °C 20.8 °C 1013.4 hPa ENE 4.5 km/h 7.7 km/h 94 % 0 mm
10:09 21.8 °C 20.7 °C 1013.4 hPa ESE 5.3 km/h 9.7 km/h 93 % 0 mm
10:14 21.8 °C 20.7 °C 1013.1 hPa ENE 8.9 km/h 13 km/h 93 % 0 mm
10:19 21.9 °C 20.8 °C 1013.1 hPa ESE 8.4 km/h 11.6 km/h 93 % 0 mm
10:24 21.9 °C 20.8 °C 1013.1 hPa ESE 8 km/h 13.5 km/h 93 % 0 mm
10:29 22.1 °C 20.7 °C 1013.1 hPa SE 4.2 km/h 9.3 km/h 92 % 0 mm
10:34 22.2 °C 20.8 °C 1013.1 hPa ENE 4.7 km/h 7.7 km/h 92 % 0 mm
10:39 22.3 °C 20.9 °C 1013.1 hPa South 8.7 km/h 9.3 km/h 92 % 0 mm
10:44 22.4 °C 20.8 °C 1013.1 hPa ESE 8.7 km/h 7.7 km/h 91 % 0 mm
10:49 22.6 °C 21 °C 1013.1 hPa East 9.8 km/h 11.6 km/h 91 % 0 mm
10:54 22.6 °C 20.9 °C 1013.1 hPa East 8.7 km/h 7.4 km/h 90 % 0 mm
10:59 22.6 °C 20.9 °C 1013.1 hPa NNE 9.7 km/h 14.8 km/h 90 % 0 mm
11:04 22.7 °C 21 °C 1012.8 hPa North 5.6 km/h 7.7 km/h 90 % 0 mm
11:09 22.8 °C 21.1 °C 1012.8 hPa NE 13 km/h 9.7 km/h 90 % 0 mm
11:14 22.8 °C 20.9 °C 1012.8 hPa East 4.8 km/h 9.3 km/h 89 % 0 mm
11:19 23 °C 21.1 °C 1012.8 hPa ENE 9.2 km/h 7.4 km/h 89 % 0 mm
11:24 23.2 °C 21.3 °C 1012.8 hPa ESE 3.2 km/h 7.4 km/h 89 % 0 mm
11:29 23.2 °C 21.1 °C 1012.8 hPa NE 5.3 km/h 9.3 km/h 88 % 0 mm
11:34 23.1 °C 21 °C 1012.8 hPa ESE 6.3 km/h 11.1 km/h 88 % 0 mm
11:39 23.2 °C 21.1 °C 1012.8 hPa NNE 3.5 km/h 9.3 km/h 88 % 0 mm
11:44 23.2 °C 21.1 °C 1012.8 hPa East 6.6 km/h 13 km/h 88 % 0 mm
11:49 23.3 °C 21.2 °C 1012.8 hPa NE 3.9 km/h 7.4 km/h 88 % 0 mm
11:54 23.2 °C 21.1 °C 1012.8 hPa East 7.7 km/h 13.5 km/h 88 % 0 mm
11:59 23.2 °C 21.1 °C 1012.8 hPa ENE 3.9 km/h 7.4 km/h 88 % 0 mm
12:04 23.3 °C 21.2 °C 1012.8 hPa NE 7.2 km/h 7.7 km/h 88 % 0 mm
Weerstation Nieuwrode (Holsbeek)
Compliments of Weather Underground - 2.25 mb

Script developed by  Jim McMurry - jmcmurry@mwt.net Adapted for the template by  Wim van der Kuil - Leuven-Template.eu

You find our weather info also at:


Het Weer Aktueel

European Weather Network

Weather Underground

AWEKAS

HAMweather, WeatherForYou, PWS Weather

Equipment we use:


Weather-station
Davis VP2 Plus

Weather-program
Weather Display

Davis VP2 Plus

Weather Display